Las Vegas, Nevada
Traffic Map
Current Weather Conditions
Las Vegas, Nevada
Few Clouds
Few Clouds
71°
Feels Like: 71°
Wind Chill: 71° Ceiling: Unl
Heat Index: 71° Visibility: 10mi
Dew Point: 37° Wind: 12mph
Humidity: 29% Direction: 190° (S)
Pressure: 29.85in Gusts: 0mph
Raw Report DataKLAS 211456Z 19010KT 10SM FEW180 22/03 A2985 RMK AO2 SLP087 T02170028 51014
Traffic Incident Summary
Active as of:
Severity:
Category:
InformationThere was an issue retrieving the traffic information for this location. Please try a different location or try again shortly.
Advertisements
Track Severe Weather on mobile